Time;durP1;ratioP1;P1;durP2;ratioP2;P2;SDS_P1;SDS_P2;PMS_P1;PMS_P2;Temp;Humidity;BMP_temperature;BMP_pressure;BME280_temperature;BME280_humidity;BME280_pressure;Samples;Min_cycle;Max_cycle;Signal;HPM_P1;HPM_P2
2022/02/01 00:01:54;;;;;;;0.70;0.50;;;20.80;35.30;;;;;;4991966;28;20401;-63
2022/02/01 00:04:32;;;;;;;0.80;0.50;;;20.80;35.30;;;;;;4993050;28;20803;-63
2022/02/01 00:09:39;;;;;;;0.93;0.40;;;20.80;35.30;;;;;;4994656;28;20405;-63
2022/02/01 00:33:16;;;;;;;0.80;0.40;;;20.70;35.40;;;;;;4994969;28;20449;-62
2022/02/01 00:34:22;;;;;;;0.70;0.30;;;20.70;35.20;;;;;;4995187;28;20402;-63
2022/02/01 00:36:52;;;;;;;0.60;0.30;;;20.70;35.20;;;;;;4995201;28;20936;-63
2022/02/01 00:39:19;;;;;;;1.02;0.40;;;20.70;35.10;;;;;;4993599;28;20889;-63
2022/02/01 00:41:53;;;;;;;0.65;0.40;;;20.70;35.30;;;;;;4993913;28;20937;-62
2022/02/01 00:44:20;;;;;;;0.73;0.40;;;20.70;35.30;;;;;;4995070;28;20406;-63
2022/02/01 00:46:46;;;;;;;0.52;0.30;;;20.70;35.10;;;;;;4995104;28;20477;-63
2022/02/01 00:49:12;;;;;;;0.65;0.30;;;20.70;35.00;;;;;;4994949;28;20827;-63
2022/02/01 00:51:38;;;;;;;0.60;0.30;;;20.70;35.10;;;;;;4994457;28;20478;-63
2022/02/01 00:54:03;;;;;;;1.70;0.40;;;20.70;35.30;;;;;;4994929;28;20395;-65
2022/02/01 00:56:30;;;;;;;1.17;0.30;;;20.60;34.90;;;;;;4994738;28;20449;-63
2022/02/01 00:58:55;;;;;;;0.60;0.30;;;20.70;35.00;;;;;;4993524;28;20422;-63
2022/02/01 01:01:21;;;;;;;0.70;0.40;;;20.70;35.00;;;;;;4994191;28;20397;-63
2022/02/01 01:03:47;;;;;;;0.50;0.30;;;20.70;35.00;;;;;;4993500;28;20890;-63
2022/02/01 01:06:14;;;;;;;0.50;0.30;;;20.60;35.10;;;;;;4993369;28;20395;-63
2022/02/01 01:08:41;;;;;;;0.90;0.40;;;20.70;35.00;;;;;;4993295;28;20410;-63
2022/02/01 01:11:08;;;;;;;1.25;0.50;;;20.70;35.00;;;;;;4994574;28;20430;-63
2022/02/01 01:53:45;;;;;;;0.20;0.20;;;20.50;34.60;;;;;;4993566;28;20797;-64
2022/02/01 01:56:11;;;;;;;0.45;0.30;;;20.50;34.60;;;;;;4994147;28;20390;-68
2022/02/01 01:58:37;;;;;;;0.50;0.30;;;20.60;34.60;;;;;;4992625;28;20912;-63
2022/02/01 02:03:31;;;;;;;0.65;0.20;;;20.50;34.60;;;;;;4992126;28;20972;-63
2022/02/01 02:05:57;;;;;;;0.40;0.30;;;20.50;34.60;;;;;;4993605;28;20430;-63
2022/02/01 02:08:22;;;;;;;0.60;0.30;;;20.50;34.60;;;;;;4993453;28;20395;-63
2022/02/01 02:10:56;;;;;;;0.43;0.30;;;20.50;34.50;;;;;;4993578;28;20759;-63
2022/02/01 02:15:58;;;;;;;0.30;0.30;;;20.50;34.40;;;;;;4993297;28;20449;-63
2022/02/01 02:18:26;;;;;;;0.33;0.30;;;20.60;34.50;;;;;;4991995;28;20473;-63
2022/02/01 02:20:56;;;;;;;0.38;0.30;;;20.60;34.20;;;;;;4993357;28;20528;-63
2022/02/01 02:23:22;;;;;;;0.47;0.30;;;20.60;34.20;;;;;;4993035;28;20394;-63
2022/02/01 02:25:50;;;;;;;0.50;0.40;;;20.60;34.40;;;;;;4993097;28;20412;-64
2022/02/01 02:28:16;;;;;;;0.25;0.20;;;20.50;34.30;;;;;;4992547;28;20390;-63
2022/02/01 02:30:48;;;;;;;0.45;0.30;;;20.50;34.20;;;;;;4993066;28;20886;-63
2022/02/01 02:33:16;;;;;;;0.38;0.30;;;20.50;34.20;;;;;;4992953;28;20414;-63
2022/02/01 02:36:16;;;;;;;0.47;0.35;;;20.50;34.30;;;;;;4992519;28;20746;-64
2022/02/01 02:38:51;;;;;;;0.40;0.28;;;20.50;34.30;;;;;;4991647;28;20429;-63
2022/02/01 02:46:47;;;;;;;0.28;0.22;;;20.50;34.30;;;;;;4992730;28;20382;-63
2022/02/01 02:49:16;;;;;;;0.30;0.20;;;20.40;34.20;;;;;;4992711;28;20399;-62
2022/02/01 02:51:42;;;;;;;0.30;0.20;;;20.50;34.20;;;;;;4992274;28;20390;-63
2022/02/01 02:54:13;;;;;;;0.20;0.20;;;20.40;34.20;;;;;;4991535;28;20406;-63
2022/02/01 02:56:46;;;;;;;0.50;0.30;;;20.40;34.20;;;;;;4992641;28;20437;-63
2022/02/01 02:59:13;;;;;;;0.55;0.30;;;20.40;34.10;;;;;;4992462;28;20914;-71
2022/02/01 03:01:40;;;;;;;0.38;0.28;;;20.40;34.10;;;;;;4992194;28;20386;-63
2022/02/01 03:04:06;;;;;;;0.60;0.30;;;20.40;34.20;;;;;;4992601;28;20398;-62
2022/02/01 03:06:32;;;;;;;0.30;0.30;;;20.40;34.10;;;;;;4992424;28;20755;-63
2022/02/01 03:08:57;;;;;;;0.20;0.20;;;20.40;34.10;;;;;;4992542;28;20445;-63
2022/02/01 03:11:23;;;;;;;0.30;0.25;;;20.40;34.10;;;;;;4992135;28;20897;-63
2022/02/01 03:13:54;;;;;;;0.50;0.30;;;20.40;34.10;;;;;;4992256;28;20410;-63
2022/02/01 03:21:33;;;;;;;0.20;0.20;;;20.40;34.00;;;;;;4991930;28;20452;-64
2022/02/01 03:23:59;;;;;;;1.00;0.22;;;20.40;34.00;;;;;;4991055;28;20402;-65
2022/02/01 03:26:24;;;;;;;0.30;0.10;;;20.40;34.10;;;;;;4993048;28;20414;-63
2022/02/01 03:28:50;;;;;;;0.30;0.22;;;20.40;34.00;;;;;;4992127;28;20397;-63
2022/02/01 03:31:17;;;;;;;0.27;0.20;;;20.50;34.00;;;;;;4990926;28;20868;-63
2022/02/01 03:33:46;;;;;;;0.30;0.20;;;20.50;34.00;;;;;;4991757;28;20398;-63
2022/02/01 03:36:12;;;;;;;0.47;0.30;;;20.40;34.00;;;;;;4992105;28;20386;-62
2022/02/01 03:38:38;;;;;;;0.30;0.28;;;20.50;34.10;;;;;;4992267;28;20422;-62
2022/02/01 03:41:04;;;;;;;0.30;0.30;;;20.40;34.00;;;;;;4996377;28;20401;-63
2022/02/01 03:43:30;;;;;;;1.00;0.20;;;20.40;34.20;;;;;;4995762;28;20489;-63
2022/02/01 03:45:56;;;;;;;0.28;0.20;;;20.40;34.00;;;;;;4996163;28;20465;-63
2022/02/01 03:48:21;;;;;;;0.30;0.30;;;20.40;34.10;;;;;;4994879;28;20956;-64
2022/02/01 03:50:47;;;;;;;0.30;0.20;;;20.40;34.10;;;;;;4996093;28;20390;-62
2022/02/01 03:53:13;;;;;;;0.30;0.20;;;20.40;34.10;;;;;;4994778;28;20409;-71
2022/02/01 03:55:39;;;;;;;0.38;0.20;;;20.40;34.10;;;;;;4995566;28;20425;-62
2022/02/01 03:58:05;;;;;;;0.32;0.30;;;20.40;33.90;;;;;;4994553;28;20806;-63
2022/02/01 04:00:32;;;;;;;0.20;0.20;;;20.40;34.00;;;;;;4995245;28;20427;-63
2022/02/01 04:03:03;;;;;;;0.30;0.20;;;20.40;34.00;;;;;;4994928;28;20405;-63
2022/02/01 04:05:29;;;;;;;0.25;0.22;;;20.40;34.00;;;;;;4995688;28;20393;-70
2022/02/01 04:07:54;;;;;;;0.20;0.20;;;20.50;34.00;;;;;;4995626;28;20390;-63
2022/02/01 04:10:20;;;;;;;1.10;0.30;;;20.50;34.00;;;;;;4994405;28;20405;-68
2022/02/01 04:12:49;;;;;;;1.65;0.50;;;20.60;35.00;;;;;;4995808;28;20858;-64
2022/02/01 04:15:15;;;;;;;1.13;0.30;;;20.70;34.50;;;;;;4995208;28;20394;-64
2022/02/01 04:17:40;;;;;;;2.30;1.52;;;20.80;35.00;;;;;;4995002;28;20439;-67
2022/02/01 04:20:06;;;;;;;0.70;0.30;;;20.80;36.10;;;;;;4995498;28;20862;-63
2022/02/01 04:22:32;;;;;;;1.17;0.40;;;20.80;35.00;;;;;;4995301;28;20386;-63
2022/02/01 04:24:58;;;;;;;3.30;0.40;;;20.80;35.40;;;;;;4994135;28;20895;-63
2022/02/01 04:27:32;;;;;;;1.30;0.40;;;20.80;35.80;;;;;;4993774;28;20497;-63
2022/02/01 04:30:07;;;;;;;1.58;0.60;;;20.80;35.70;;;;;;4994069;28;20408;-63
2022/02/01 04:32:53;;;;;;;1.15;0.20;;;20.80;35.70;;;;;;4995241;28;20390;-63
2022/02/01 04:35:25;;;;;;;1.98;0.35;;;20.80;36.90;;;;;;4994104;28;20509;-64
2022/02/01 04:37:54;;;;;;;1.63;0.40;;;20.90;36.90;;;;;;4991569;28;20996;-66
2022/02/01 04:40:26;;;;;;;1.67;0.40;;;20.90;36.50;;;;;;4994921;28;20412;-63
2022/02/01 04:42:52;;;;;;;0.60;0.30;;;21.00;36.20;;;;;;4994754;28;20407;-63
2022/02/01 04:45:21;;;;;;;3.25;0.30;;;21.00;36.00;;;;;;4995506;28;20481;-64
2022/02/01 04:47:48;;;;;;;2.05;0.30;;;21.00;35.70;;;;;;4995544;28;20409;-63
2022/02/01 04:50:19;;;;;;;1.00;0.32;;;21.00;35.50;;;;;;4993711;28;20951;-63
2022/02/01 04:52:48;;;;;;;1.65;0.38;;;21.00;35.40;;;;;;4993642;28;20398;-64
2022/02/01 04:55:15;;;;;;;1.90;0.40;;;20.90;35.10;;;;;;4994915;28;20413;-68
2022/02/01 04:57:56;;;;;;;1.35;0.30;;;20.90;35.50;;;;;;4992990;28;20475;-63
2022/02/01 05:00:25;;;;;;;2.97;0.28;;;21.00;35.70;;;;;;4994696;28;20395;-70
2022/02/01 05:02:52;;;;;;;1.15;0.38;;;21.00;35.70;;;;;;4994756;28;20436;-63
2022/02/01 05:05:22;;;;;;;0.70;0.28;;;21.00;35.60;;;;;;4994549;28;20395;-63
2022/02/01 05:07:47;;;;;;;1.50;0.30;;;21.00;35.40;;;;;;4994124;28;20441;-64
2022/02/01 05:10:13;;;;;;;0.60;0.30;;;21.00;35.40;;;;;;4994432;28;20446;-67
2022/02/01 05:12:39;;;;;;;1.13;0.20;;;20.90;35.40;;;;;;4994501;28;20974;-63
2022/02/01 05:15:07;;;;;;;0.90;0.20;;;20.90;35.40;;;;;;4993875;28;20395;-63
2022/02/01 05:17:39;;;;;;;1.85;0.40;;;20.90;35.40;;;;;;4993129;28;20426;-67
2022/02/01 05:20:22;;;;;;;2.67;0.45;;;20.90;35.10;;;;;;4993040;28;20900;-63
2022/02/01 05:22:48;;;;;;;1.25;0.30;;;20.90;35.60;;;;;;4995352;28;20398;-72
2022/02/01 05:25:14;;;;;;;2.78;0.40;;;20.90;35.10;;;;;;4995314;28;20409;-63
2022/02/01 05:27:40;;;;;;;0.65;0.30;;;20.90;35.10;;;;;;4993939;28;20481;-64
2022/02/01 05:30:06;;;;;;;2.10;0.30;;;20.80;35.00;;;;;;4993114;28;20501;-65
2022/02/01 05:32:32;;;;;;;2.10;0.40;;;20.80;34.90;;;;;;4986911;28;20457;-64
2022/02/01 05:34:58;;;;;;;3.27;0.57;;;20.70;34.60;;;;;;4993811;28;20442;-64
2022/02/01 05:37:24;;;;;;;1.00;0.40;;;20.70;34.40;;;;;;4993368;28;20480;-64
2022/02/01 05:39:50;;;;;;;1.00;0.25;;;20.80;35.40;;;;;;4993337;28;20892;-63
2022/02/01 05:42:20;;;;;;;2.20;0.65;;;20.80;34.50;;;;;;4992488;28;20445;-63
2022/02/01 05:44:46;;;;;;;2.20;0.50;;;20.70;34.40;;;;;;4992699;28;20437;-63
2022/02/01 05:47:13;;;;;;;1.57;0.50;;;20.70;34.40;;;;;;4993843;28;20502;-63
2022/02/01 05:49:40;;;;;;;2.15;0.80;;;20.70;34.70;;;;;;4992210;28;21045;-63
2022/02/01 05:52:06;;;;;;;1.80;0.60;;;20.70;35.50;;;;;;4992859;28;20481;-64
2022/02/01 05:54:32;;;;;;;2.83;0.68;;;20.70;35.80;;;;;;4992732;28;20386;-64
2022/02/01 05:56:58;;;;;;;3.17;0.70;;;20.80;36.10;;;;;;4993554;28;20890;-63
2022/02/01 05:59:24;;;;;;;3.78;0.60;;;20.80;35.80;;;;;;4993612;28;20414;-63
2022/02/01 06:01:50;;;;;;;3.10;0.70;;;20.90;36.00;;;;;;4992525;28;20385;-64
2022/02/01 06:04:15;;;;;;;1.77;0.70;;;20.90;36.20;;;;;;4992318;28;20410;-64
2022/02/01 06:06:41;;;;;;;3.90;0.65;;;20.90;35.90;;;;;;4992244;28;20399;-63
2022/02/01 06:09:06;;;;;;;1.40;0.80;;;20.80;35.70;;;;;;4993534;28;20398;-63
2022/02/01 06:11:32;;;;;;;1.63;0.60;;;20.90;35.90;;;;;;4993298;28;20440;-65
2022/02/01 06:13:58;;;;;;;1.90;0.63;;;20.90;35.80;;;;;;4993012;28;20916;-63
2022/02/01 06:16:24;;;;;;;1.67;0.70;;;20.90;35.80;;;;;;4993041;28;20557;-64
2022/02/01 06:18:50;;;;;;;1.38;0.77;;;20.90;35.70;;;;;;4991908;28;20422;-63
2022/02/01 06:21:16;;;;;;;1.45;0.73;;;20.80;35.60;;;;;;4993734;28;20393;-64
2022/02/01 06:23:41;;;;;;;2.00;0.98;;;20.90;35.60;;;;;;4991521;28;20485;-64
2022/02/01 06:26:07;;;;;;;3.47;0.87;;;20.90;35.50;;;;;;4993246;28;20533;-63
2022/02/01 06:28:33;;;;;;;2.70;0.70;;;20.80;35.50;;;;;;4991519;28;20406;-64
2022/02/01 06:30:58;;;;;;;1.30;0.70;;;20.90;35.50;;;;;;4991905;28;20883;-66
2022/02/01 06:33:25;;;;;;;2.50;1.00;;;20.90;35.20;;;;;;4992370;28;20395;-64
2022/02/01 06:35:51;;;;;;;1.10;0.70;;;20.90;35.80;;;;;;4992033;28;20387;-63
2022/02/01 06:38:17;;;;;;;2.05;1.27;;;20.90;34.80;;;;;;4992317;28;20410;-63
2022/02/01 06:40:46;;;;;;;2.40;1.77;;;20.90;36.10;;;;;;4992477;28;20394;-64
2022/02/01 06:43:13;;;;;;;1.97;1.13;;;20.90;37.40;;;;;;4992369;28;20794;-73
2022/02/01 06:45:39;;;;;;;3.10;1.02;;;20.90;36.90;;;;;;4992926;28;20481;-63
2022/02/01 06:48:05;;;;;;;3.45;1.05;;;21.00;37.70;;;;;;4992115;28;20394;-63
2022/02/01 06:50:31;;;;;;;3.10;1.00;;;21.10;37.50;;;;;;4992481;28;20401;-63
2022/02/01 06:52:58;;;;;;;1.95;0.80;;;21.10;37.40;;;;;;4992101;28;20410;-63
2022/02/01 06:58:11;;;;;;;1.95;0.82;;;21.10;37.20;;;;;;4992505;28;20433;-64
2022/02/01 07:00:37;;;;;;;1.92;0.90;;;21.10;37.30;;;;;;4992276;28;20398;-63
2022/02/01 07:03:03;;;;;;;2.50;0.90;;;21.10;37.10;;;;;;4992081;28;20871;-65
2022/02/01 07:05:31;;;;;;;1.88;0.80;;;21.10;37.00;;;;;;4992543;28;20406;-64
2022/02/01 07:07:56;;;;;;;2.10;0.70;;;21.10;36.80;;;;;;5007399;28;20402;-65
2022/02/01 07:10:22;;;;;;;1.40;0.67;;;21.10;36.60;;;;;;4991761;28;20456;-64
2022/02/01 07:12:48;;;;;;;2.83;0.80;;;21.10;36.50;;;;;;4991432;28;20928;-65
2022/02/01 07:15:14;;;;;;;1.10;0.60;;;21.10;36.30;;;;;;4992761;28;20397;-66
2022/02/01 07:17:48;;;;;;;1.80;0.70;;;21.10;36.10;;;;;;4990600;28;20417;-63
2022/02/01 07:20:23;;;;;;;1.43;0.80;;;21.10;35.90;;;;;;4993289;28;20486;-62
2022/02/01 07:22:49;;;;;;;1.17;0.60;;;21.00;35.80;;;;;;4991808;28;20822;-64
2022/02/01 07:25:28;;;;;;;0.93;0.60;;;21.00;35.80;;;;;;4992087;28;20409;-64
2022/02/01 07:27:55;;;;;;;2.85;0.70;;;20.90;35.70;;;;;;4992276;28;20394;-64
2022/02/01 07:30:27;;;;;;;2.55;0.77;;;20.90;35.30;;;;;;4991502;28;20386;-64
2022/02/01 07:32:54;;;;;;;1.05;0.70;;;20.90;35.10;;;;;;4991862;28;20728;-64
2022/02/01 07:35:22;;;;;;;1.15;0.70;;;20.90;35.10;;;;;;4991601;28;20390;-64
2022/02/01 07:37:48;;;;;;;1.10;0.70;;;20.90;35.00;;;;;;4990189;28;20422;-63
2022/02/01 07:40:14;;;;;;;1.27;0.80;;;20.90;35.40;;;;;;4991471;28;20391;-64
2022/02/01 07:42:40;;;;;;;1.45;0.70;;;20.90;34.80;;;;;;4992011;28;20395;-63
2022/02/01 07:45:08;;;;;;;1.02;0.73;;;20.90;34.60;;;;;;4992308;28;20409;-63
2022/02/01 07:47:34;;;;;;;1.77;0.60;;;20.90;34.60;;;;;;4992055;28;20400;-70
2022/02/01 07:49:59;;;;;;;1.98;0.82;;;20.90;34.50;;;;;;4991917;28;20478;-64
2022/02/01 07:52:30;;;;;;;1.02;0.60;;;20.80;34.50;;;;;;4992555;28;20467;-76
2022/02/01 07:54:56;;;;;;;2.38;0.80;;;20.80;34.50;;;;;;4990803;28;20402;-70
2022/02/01 07:57:22;;;;;;;1.50;0.60;;;20.80;34.40;;;;;;4993811;28;20467;-64
2022/02/01 07:59:47;;;;;;;1.53;0.60;;;20.80;34.30;;;;;;5010969;28;20399;-63
2022/02/01 08:02:22;;;;;;;1.38;0.57;;;20.80;34.10;;;;;;5011282;28;20792;-63
2022/02/01 08:04:49;;;;;;;1.13;0.68;;;20.80;34.00;;;;;;5011365;28;20464;-64
2022/02/01 08:07:15;;;;;;;1.35;0.57;;;20.80;34.00;;;;;;5010529;28;20872;-63
2022/02/01 08:09:45;;;;;;;1.25;0.70;;;20.90;34.00;;;;;;5011442;28;20867;-65
2022/02/01 08:20:18;;;;;;;1.40;0.70;;;20.80;33.60;;;;;;4993625;28;20485;-62
2022/02/01 08:25:14;;;;;;;1.67;0.98;;;20.80;34.30;;;;;;4993462;28;20397;-65
2022/02/01 08:27:40;;;;;;;1.17;0.75;;;20.80;34.10;;;;;;4994302;28;20489;-63
2022/02/01 08:30:11;;;;;;;1.00;0.70;;;20.80;34.00;;;;;;4993875;28;20941;-63
2022/02/01 08:32:38;;;;;;;1.13;0.80;;;20.70;33.90;;;;;;4990930;28;20754;-65
2022/02/01 08:35:05;;;;;;;1.23;0.73;;;20.70;33.70;;;;;;4994270;28;20401;-65
2022/02/01 08:37:32;;;;;;;1.10;0.70;;;20.70;33.60;;;;;;4993709;28;20902;-65
2022/02/01 08:39:58;;;;;;;1.80;1.00;;;20.70;33.60;;;;;;4994296;28;20426;-66
2022/02/01 08:42:24;;;;;;;1.60;1.00;;;20.60;34.10;;;;;;4993510;28;20431;-65
2022/02/01 08:44:58;;;;;;;1.17;0.80;;;20.70;34.00;;;;;;4994943;28;20398;-66
2022/02/01 08:47:24;;;;;;;1.20;0.70;;;20.70;34.00;;;;;;4995747;28;20394;-65
2022/02/01 08:49:49;;;;;;;1.33;0.90;;;20.70;33.90;;;;;;4994232;28;20802;-64
2022/02/01 08:52:27;;;;;;;1.50;0.90;;;20.70;33.70;;;;;;4994120;28;20389;-66
2022/02/01 08:54:54;;;;;;;1.58;1.00;;;20.60;33.60;;;;;;4994355;28;20414;-66
2022/02/01 08:57:25;;;;;;;1.73;1.00;;;20.60;33.70;;;;;;4994133;28;20390;-65
2022/02/01 08:59:57;;;;;;;1.67;1.00;;;20.60;33.60;;;;;;4994125;28;20394;-67
2022/02/01 09:02:25;;;;;;;1.55;0.90;;;20.60;33.60;;;;;;4994333;28;20390;-68
2022/02/01 09:04:50;;;;;;;1.70;1.10;;;20.60;33.60;;;;;;4994522;28;20435;-68
2022/02/01 09:07:16;;;;;;;2.20;1.10;;;20.60;33.60;;;;;;4994220;28;20423;-65
2022/02/01 09:09:42;;;;;;;1.85;1.15;;;20.60;33.70;;;;;;4992673;28;20410;-64
2022/02/01 09:12:08;;;;;;;2.03;1.13;;;20.60;33.60;;;;;;4992668;28;20410;-64
2022/02/01 09:14:34;;;;;;;1.85;1.20;;;20.60;33.60;;;;;;4993999;28;20466;-64
2022/02/01 09:17:01;;;;;;;1.40;0.90;;;20.60;33.60;;;;;;4992505;28;20914;-64
2022/02/01 09:19:30;;;;;;;2.72;1.40;;;20.60;33.60;;;;;;4993506;28;20415;-64
2022/02/01 09:21:56;;;;;;;2.57;1.37;;;20.60;33.50;;;;;;4992442;28;20406;-64
2022/02/01 09:24:23;;;;;;;3.08;1.38;;;20.60;33.50;;;;;;4994533;28;20407;-65
2022/02/01 09:26:52;;;;;;;2.30;1.40;;;20.50;33.40;;;;;;4992839;28;20409;-64
2022/02/01 09:29:20;;;;;;;3.30;1.50;;;20.60;33.60;;;;;;4994902;28;20750;-72
2022/02/01 09:31:47;;;;;;;2.80;1.70;;;20.50;33.50;;;;;;4995233;28;20537;-71
2022/02/01 09:34:14;;;;;;;2.15;1.40;;;20.50;33.50;;;;;;4994847;28;20378;-64
2022/02/01 09:36:40;;;;;;;2.97;1.90;;;20.50;33.50;;;;;;4992881;28;20434;-63
2022/02/01 09:39:08;;;;;;;3.47;2.03;;;20.50;33.40;;;;;;4993871;28;20451;-64
2022/02/01 09:41:40;;;;;;;4.05;2.05;;;20.50;33.40;;;;;;4993746;28;20754;-65
2022/02/01 09:44:06;;;;;;;3.60;2.08;;;20.50;33.40;;;;;;4993472;28;20477;-65
2022/02/01 09:46:34;;;;;;;4.35;2.55;;;20.50;33.40;;;;;;4992652;28;20407;-65
2022/02/01 09:49:00;;;;;;;4.18;2.50;;;20.40;33.40;;;;;;4989910;28;20390;-65
2022/02/01 09:51:26;;;;;;;5.13;2.58;;;20.40;33.30;;;;;;4991056;28;20399;-71
2022/02/01 09:53:53;;;;;;;3.87;2.40;;;20.40;33.30;;;;;;4992934;28;20398;-75
2022/02/01 09:56:20;;;;;;;5.15;2.72;;;20.40;33.30;;;;;;4990363;28;20417;-75
2022/02/01 09:58:55;;;;;;;4.72;2.80;;;20.40;33.30;;;;;;4993062;28;20418;-65
2022/02/01 10:01:30;;;;;;;5.22;2.97;;;20.40;33.40;;;;;;4991987;28;20394;-64
2022/02/01 10:04:01;;;;;;;4.73;2.70;;;20.40;33.30;;;;;;4971736;28;22130;-75
2022/02/01 10:06:34;;;;;;;4.28;2.90;;;20.40;33.40;;;;;;4985312;28;20409;-64
2022/02/01 10:09:09;;;;;;;4.88;2.70;;;20.40;33.30;;;;;;4991629;28;20496;-70
2022/02/01 10:11:36;;;;;;;4.65;2.92;;;20.40;33.90;;;;;;4993642;28;20394;-65
2022/02/01 10:14:07;;;;;;;4.05;2.60;;;20.40;33.40;;;;;;4992208;28;20406;-74
2022/02/01 10:16:42;;;;;;;4.55;2.75;;;20.40;33.50;;;;;;4992267;28;20498;-64
2022/02/01 10:19:09;;;;;;;4.55;2.63;;;20.40;33.40;;;;;;4992855;28;20498;-73
2022/02/01 10:21:47;;;;;;;4.70;2.90;;;20.30;33.30;;;;;;4990021;28;20449;-66
2022/02/01 10:24:13;;;;;;;3.90;2.53;;;20.30;33.30;;;;;;4992117;28;20401;-65
2022/02/01 10:26:39;;;;;;;3.67;2.40;;;20.30;33.30;;;;;;4992977;28;20391;-72
2022/02/01 10:29:12;;;;;;;3.90;2.35;;;20.30;33.30;;;;;;4992773;28;20887;-65
2022/02/01 10:31:50;;;;;;;3.67;2.45;;;20.30;33.30;;;;;;4993046;28;20394;-75
2022/02/01 10:36:51;;;;;;;3.05;2.20;;;20.30;33.20;;;;;;4984392;28;20406;-66
2022/02/01 10:39:23;;;;;;;3.90;2.20;;;20.30;33.30;;;;;;4991855;28;20533;-68
2022/02/01 10:41:56;;;;;;;3.20;2.00;;;20.30;33.20;;;;;;4979273;28;20400;-64
2022/02/01 10:44:22;;;;;;;3.50;2.20;;;20.30;33.20;;;;;;4984568;28;20395;-64
2022/02/01 10:46:53;;;;;;;3.95;2.30;;;20.30;33.20;;;;;;4992576;28;20795;-64
2022/02/01 10:49:31;;;;;;;3.38;2.40;;;20.30;33.30;;;;;;4982766;28;20445;-64
2022/02/01 10:52:09;;;;;;;4.47;2.38;;;20.30;33.30;;;;;;4992012;28;20905;-64
2022/02/01 10:54:40;;;;;;;3.55;2.15;;;20.30;33.40;;;;;;4993038;28;20771;-67
2022/02/01 10:57:08;;;;;;;3.85;2.13;;;20.40;33.80;;;;;;4985850;28;20402;-68
2022/02/01 10:59:35;;;;;;;5.17;2.70;;;20.40;34.00;;;;;;4988847;28;20426;-63
2022/02/01 11:02:03;;;;;;;4.53;2.50;;;20.50;35.50;;;;;;4990994;28;20818;-63
2022/02/01 11:04:31;;;;;;;3.88;2.10;;;20.60;35.80;;;;;;4991245;28;20402;-64
2022/02/01 11:06:58;;;;;;;4.75;2.25;;;20.70;34.90;;;;;;4991360;28;20398;-63
2022/02/01 11:09:29;;;;;;;3.73;2.20;;;20.70;35.30;;;;;;4991285;28;20394;-63
2022/02/01 11:11:57;;;;;;;3.63;2.00;;;20.70;35.50;;;;;;4989096;28;20398;-63
2022/02/01 11:14:26;;;;;;;3.87;2.00;;;20.70;35.00;;;;;;4992398;28;20401;-63
2022/02/01 11:17:21;;;;;;;2.77;1.90;;;20.70;34.30;;;;;;4992190;28;20488;-63
2022/02/01 11:19:55;;;;;;;3.27;1.70;;;20.70;34.10;;;;;;4987398;28;20445;-63
2022/02/01 11:22:32;;;;;;;4.03;1.70;;;20.60;33.90;;;;;;4992371;28;20395;-61
2022/02/01 11:25:15;;;;;;;3.35;1.90;;;20.50;33.70;;;;;;4992295;28;20383;-64
2022/02/01 11:27:59;;;;;;;2.90;1.80;;;20.50;33.80;;;;;;4992253;28;20414;-61
2022/02/01 11:30:37;;;;;;;4.18;1.65;;;20.50;34.00;;;;;;4991823;28;20390;-61
2022/02/01 11:33:04;;;;;;;3.58;2.00;;;20.50;34.00;;;;;;4992095;28;20410;-61
2022/02/01 11:35:30;;;;;;;2.95;1.60;;;20.50;34.00;;;;;;4990686;28;20421;-61
2022/02/01 11:38:21;;;;;;;3.75;1.58;;;20.50;33.90;;;;;;4991367;28;20410;-62
2022/02/01 11:40:57;;;;;;;3.53;1.67;;;20.50;33.80;;;;;;4992141;28;20398;-62
2022/02/01 11:43:24;;;;;;;3.05;1.70;;;20.50;33.60;;;;;;4991730;28;20436;-61
2022/02/01 11:45:56;;;;;;;2.80;1.60;;;20.50;33.50;;;;;;4991814;28;20421;-62
2022/02/01 11:48:25;;;;;;;2.72;1.55;;;20.50;34.00;;;;;;4991964;28;20750;-61
2022/02/01 11:50:54;;;;;;;3.58;1.70;;;20.50;33.40;;;;;;4992017;28;20390;-61
2022/02/01 11:53:24;;;;;;;3.53;1.80;;;20.50;33.30;;;;;;4990142;28;20406;-62
2022/02/01 11:55:53;;;;;;;3.25;1.50;;;20.50;33.30;;;;;;4991292;28;20417;-62
2022/02/01 11:58:34;;;;;;;3.15;1.60;;;20.50;33.30;;;;;;4991850;28;20778;-61
2022/02/01 12:01:02;;;;;;;3.25;1.60;;;20.50;33.30;;;;;;4994546;28;20407;-61
2022/02/01 12:03:36;;;;;;;3.22;1.40;;;20.50;33.40;;;;;;4994552;28;20391;-61
2022/02/01 12:06:10;;;;;;;2.97;1.58;;;20.50;33.30;;;;;;4995419;28;20409;-62
2022/02/01 12:08:43;;;;;;;2.60;1.20;;;20.40;33.20;;;;;;4995790;28;20385;-61
2022/02/01 12:11:12;;;;;;;2.35;1.33;;;20.40;33.10;;;;;;4995675;28;20485;-61
2022/02/01 12:13:38;;;;;;;2.90;1.40;;;20.40;33.20;;;;;;4994269;28;20395;-62
2022/02/01 12:16:07;;;;;;;3.00;1.50;;;20.40;33.20;;;;;;4994867;28;20864;-61
2022/02/01 12:19:02;;;;;;;3.53;1.48;;;20.40;33.30;;;;;;4995581;28;20895;-61
2022/02/01 12:22:04;;;;;;;2.40;1.20;;;20.40;33.10;;;;;;4995319;28;20465;-61
2022/02/01 12:24:30;;;;;;;2.58;1.27;;;20.40;33.00;;;;;;4990729;28;20402;-63
2022/02/01 12:26:56;;;;;;;3.10;1.50;;;20.30;33.00;;;;;;4995370;28;20378;-61
2022/02/01 12:29:21;;;;;;;2.33;1.07;;;20.40;33.10;;;;;;4995342;28;20448;-61
2022/02/01 12:31:48;;;;;;;2.20;1.13;;;20.40;33.00;;;;;;4994020;28;20914;-61
2022/02/01 12:34:17;;;;;;;2.47;1.30;;;20.30;32.90;;;;;;4994711;28;20809;-63
2022/02/01 12:36:50;;;;;;;2.00;1.20;;;20.40;32.90;;;;;;4995255;28;20410;-63
2022/02/01 12:39:26;;;;;;;3.38;1.20;;;20.30;32.90;;;;;;4994447;28;20461;-61
2022/02/01 12:42:08;;;;;;;2.30;1.40;;;20.30;32.90;;;;;;4994954;28;20390;-67
2022/02/01 12:47:06;;;;;;;2.20;1.20;;;20.30;32.70;;;;;;4995092;28;20410;-62
2022/02/01 12:49:40;;;;;;;2.75;1.20;;;20.30;32.70;;;;;;4993702;28;20403;-61
2022/02/01 12:52:16;;;;;;;2.92;1.10;;;20.30;32.80;;;;;;4993822;28;20401;-61
2022/02/01 12:54:42;;;;;;;2.63;1.13;;;20.30;32.70;;;;;;4993697;28;20394;-61
2022/02/01 12:57:13;;;;;;;2.23;1.10;;;20.30;32.70;;;;;;4993753;28;20390;-61
2022/02/01 12:59:53;;;;;;;2.40;1.27;;;20.30;32.60;;;;;;4993342;28;20418;-61
2022/02/01 13:02:25;;;;;;;2.60;1.10;;;20.30;32.60;;;;;;4991824;28;20391;-61
2022/02/01 13:04:57;;;;;;;1.92;1.00;;;20.30;32.60;;;;;;4991219;28;20406;-61
2022/02/01 13:16:16;;;;;;;2.60;1.20;;;20.20;32.70;;;;;;4988931;28;20381;-68
2022/02/01 13:21:24;;;;;;;2.50;1.00;;;20.30;33.50;;;;;;4990972;28;20459;-62
2022/02/01 13:23:57;;;;;;;3.33;1.10;;;20.20;33.80;;;;;;4991936;28;20762;-71
2022/02/01 13:26:25;;;;;;;3.30;1.30;;;20.20;33.80;;;;;;4990560;28;20394;-61
2022/02/01 13:29:02;;;;;;;2.75;1.05;;;20.20;33.70;;;;;;4991794;28;20438;-61
2022/02/01 13:31:34;;;;;;;2.00;1.10;;;20.20;33.60;;;;;;4991052;28;20406;-61
2022/02/01 13:34:05;;;;;;;3.55;1.20;;;20.20;33.60;;;;;;4993785;28;20402;-61
2022/02/01 13:36:48;;;;;;;2.55;1.00;;;20.20;33.90;;;;;;4993946;28;20396;-61
2022/02/01 13:39:26;;;;;;;3.50;1.10;;;20.20;34.00;;;;;;4992151;28;20838;-61
2022/02/01 13:41:57;;;;;;;2.92;0.80;;;20.20;34.10;;;;;;4993519;28;20477;-60
2022/02/01 13:44:23;;;;;;;3.08;1.10;;;20.20;33.90;;;;;;4993583;28;20395;-61
2022/02/01 13:47:03;;;;;;;2.38;1.00;;;20.20;33.90;;;;;;4993942;28;20418;-61
2022/02/01 13:49:28;;;;;;;1.98;0.90;;;20.20;33.80;;;;;;4993738;28;20408;-61
2022/02/01 13:51:55;;;;;;;2.30;0.87;;;20.30;33.70;;;;;;4992167;28;20818;-61
2022/02/01 13:54:21;;;;;;;2.45;0.90;;;20.20;34.00;;;;;;4993352;28;20481;-61
2022/02/01 13:56:50;;;;;;;2.83;1.00;;;20.20;33.90;;;;;;4992288;28;20740;-61
2022/02/01 13:59:22;;;;;;;1.90;0.85;;;20.10;34.10;;;;;;4993555;28;20477;-61
2022/02/01 14:01:48;;;;;;;2.72;1.17;;;20.10;34.00;;;;;;4993682;28;20863;-61
2022/02/01 14:04:25;;;;;;;1.98;0.70;;;20.10;33.90;;;;;;4993131;28;20394;-62
2022/02/01 14:07:22;;;;;;;1.65;0.85;;;20.10;34.00;;;;;;4992293;28;20939;-61
2022/02/01 14:10:15;;;;;;;2.83;0.88;;;20.10;34.10;;;;;;4992335;28;20409;-61
2022/02/01 14:29:07;;;;;;;1.77;0.82;;;20.10;34.10;;;;;;4992205;28;20399;-61
2022/02/01 14:34:19;;;;;;;1.80;0.70;;;20.10;34.10;;;;;;4992692;28;20823;-61
2022/02/01 14:36:48;;;;;;;1.52;0.60;;;20.10;34.20;;;;;;4993055;28;20398;-61
2022/02/01 14:44:33;;;;;;;1.25;0.70;;;20.10;34.30;;;;;;4992279;28;20466;-61
2022/02/01 14:47:01;;;;;;;2.38;0.88;;;20.00;34.10;;;;;;4992598;28;20490;-61
2022/02/01 14:49:27;;;;;;;1.20;0.63;;;20.10;33.90;;;;;;4992669;28;20399;-61
2022/02/01 14:52:01;;;;;;;1.70;0.60;;;20.10;34.40;;;;;;4992573;28;20435;-63
2022/02/01 14:54:34;;;;;;;1.30;0.60;;;20.10;33.70;;;;;;4989594;28;20441;-62
2022/02/01 15:11:22;;;;;;;1.80;0.60;;;20.00;33.60;;;;;;4991407;28;20396;-62
2022/02/01 15:13:29;;;;;;;1.63;0.50;;;20.00;33.50;;;;;;4992324;28;20743;-62
2022/02/01 15:15:57;;;;;;;1.27;0.50;;;20.10;33.60;;;;;;4991219;28;20409;-62
2022/02/01 15:18:22;;;;;;;1.10;0.50;;;20.00;33.50;;;;;;4990561;28;20433;-62
2022/02/01 15:20:51;;;;;;;1.02;0.40;;;20.10;33.50;;;;;;4992097;28;20391;-62
2022/02/01 15:23:17;;;;;;;1.48;0.60;;;20.00;33.40;;;;;;4992274;28;20461;-62
2022/02/01 15:25:43;;;;;;;1.52;0.70;;;20.00;34.00;;;;;;4992342;28;20397;-62